Time;durP1;ratioP1;P1;durP2;ratioP2;P2;SDS_P1;SDS_P2;PMS_P1;PMS_P2;Temp;Humidity;BMP_temperature;BMP_pressure;BME280_temperature;BME280_humidity;BME280_pressure;Samples;Min_cycle;Max_cycle;Signal;HPM_P1;HPM_P2
2022/06/20 00:01:24;;;;;;;0.00;0.00;;;13.40;99.90;;;;;;4980738;28;20614;-58
2022/06/20 00:03:51;;;;;;;0.00;0.00;;;13.40;99.90;;;;;;4979659;28;20046;-59
2022/06/20 00:06:20;;;;;;;0.00;0.00;;;13.40;99.90;;;;;;4980717;28;20050;-60
2022/06/20 00:08:51;;;;;;;0.00;0.00;;;13.30;99.90;;;;;;4978208;28;20145;-58
2022/06/20 00:11:41;;;;;;;0.00;0.00;;;13.30;99.90;;;;;;4980496;28;20050;-56
2022/06/20 00:14:15;;;;;;;0.00;0.00;;;13.30;99.90;;;;;;4980222;28;20145;-58
2022/06/20 00:16:41;;;;;;;0.00;0.00;;;13.30;99.90;;;;;;4981522;28;20137;-58
2022/06/20 00:19:09;;;;;;;0.00;0.00;;;13.30;99.90;;;;;;4980483;28;20057;-58
2022/06/20 00:21:35;;;;;;;0.00;0.00;;;13.30;99.90;;;;;;4979834;28;20406;-59
2022/06/20 00:24:01;;;;;;;0.00;0.00;;;13.30;99.90;;;;;;4980074;28;20042;-58
2022/06/20 00:26:27;;;;;;;0.00;0.00;;;13.30;99.90;;;;;;4980120;28;20118;-59
2022/06/20 00:28:53;;;;;;;0.00;0.00;;;13.30;99.90;;;;;;4980658;28;20050;-59
2022/06/20 00:31:19;;;;;;;0.00;0.00;;;13.30;99.90;;;;;;4977662;28;20508;-58
2022/06/20 00:33:45;;;;;;;0.00;0.00;;;13.30;99.90;;;;;;4980675;28;20061;-59
2022/06/20 00:36:12;;;;;;;0.00;0.00;;;13.30;99.90;;;;;;4980894;28;20062;-58
2022/06/20 00:38:38;;;;;;;0.00;0.00;;;13.30;99.90;;;;;;4979486;28;20072;-59
2022/06/20 00:41:14;;;;;;;0.00;0.00;;;13.30;99.90;;;;;;4979541;28;20042;-58
2022/06/20 00:43:43;;;;;;;0.00;0.00;;;13.30;99.90;;;;;;4980078;28;20461;-59
2022/06/20 00:46:12;;;;;;;0.00;0.00;;;13.30;99.90;;;;;;4991212;28;20052;-58
2022/06/20 00:48:52;;;;;;;0.00;0.00;;;13.30;99.90;;;;;;4979980;28;20046;-58
2022/06/20 00:51:28;;;;;;;0.00;0.00;;;13.20;99.90;;;;;;4980033;28;20046;-59
2022/06/20 00:54:01;;;;;;;0.00;0.00;;;13.40;99.90;;;;;;4978529;28;20042;-59
2022/06/20 00:56:38;;;;;;;0.00;0.00;;;13.30;99.90;;;;;;4980376;28;20681;-59
2022/06/20 00:59:11;;;;;;;0.00;0.00;;;13.40;99.90;;;;;;4979382;28;20038;-59
2022/06/20 01:04:09;;;;;;;0.00;0.00;;;13.40;99.90;;;;;;5046765;23;20064;-58
2022/06/20 01:06:40;;;;;;;0.00;0.00;;;13.30;99.90;;;;;;5037240;28;20053;-58
2022/06/20 01:09:08;;;;;;;0.00;0.00;;;13.30;99.90;;;;;;5038007;28;20356;-59
2022/06/20 01:11:56;;;;;;;0.00;0.00;;;13.30;99.90;;;;;;5039148;28;20147;-58
2022/06/20 01:14:27;;;;;;;0.00;0.00;;;13.30;99.90;;;;;;5038757;28;20418;-58
2022/06/20 01:16:57;;;;;;;0.00;0.00;;;13.20;99.90;;;;;;5037934;28;20961;-58
2022/06/20 01:19:42;;;;;;;0.00;0.00;;;13.20;99.90;;;;;;5038680;28;20134;-58
2022/06/20 01:22:26;;;;;;;0.00;0.00;;;13.20;99.90;;;;;;5037395;28;20055;-57
2022/06/20 01:25:11;;;;;;;0.00;0.00;;;13.30;99.90;;;;;;5036451;28;20061;-58
2022/06/20 01:27:41;;;;;;;0.00;0.00;;;13.20;99.90;;;;;;5039241;28;20059;-59
2022/06/20 01:30:07;;;;;;;0.00;0.00;;;13.20;99.90;;;;;;5038565;28;20045;-60
2022/06/20 01:32:34;;;;;;;0.00;0.00;;;13.30;99.90;;;;;;5038090;28;20037;-59
2022/06/20 01:35:04;;;;;;;0.00;0.00;;;13.30;99.90;;;;;;5038738;28;20048;-58
2022/06/20 01:37:34;;;;;;;0.00;0.00;;;13.30;99.90;;;;;;5037971;28;20045;-58
2022/06/20 01:40:12;;;;;;;0.00;0.00;;;13.30;99.90;;;;;;5037536;28;20049;-58
2022/06/20 01:42:40;;;;;;;0.00;0.00;;;13.30;99.90;;;;;;5037496;28;20809;-58
2022/06/20 01:48:08;;;;;;;0.00;0.00;;;13.30;99.90;;;;;;5036399;28;20139;-59
2022/06/20 01:50:35;;;;;;;0.00;0.00;;;13.20;99.90;;;;;;5018244;28;20033;-59
2022/06/20 01:53:05;;;;;;;0.00;0.00;;;13.10;99.90;;;;;;5017635;28;20095;-59
2022/06/20 01:55:32;;;;;;;0.00;0.00;;;13.10;99.90;;;;;;5018375;28;20674;-59
2022/06/20 01:58:30;;;;;;;0.00;0.00;;;13.00;99.90;;;;;;5018402;28;20049;-59
2022/06/20 02:00:57;;;;;;;0.00;0.00;;;13.00;99.90;;;;;;5017917;28;20119;-59
2022/06/20 02:03:23;;;;;;;0.00;0.00;;;13.00;99.90;;;;;;5018152;28;20049;-59
2022/06/20 02:05:54;;;;;;;0.00;0.00;;;13.00;99.90;;;;;;5017618;28;20058;-58
2022/06/20 02:08:21;;;;;;;0.00;0.00;;;13.00;99.90;;;;;;5017720;28;20048;-59
2022/06/20 02:11:07;;;;;;;0.00;0.00;;;12.90;99.90;;;;;;5018475;28;20045;-59
2022/06/20 02:13:38;;;;;;;0.00;0.00;;;12.90;99.90;;;;;;5018258;28;20055;-59
2022/06/20 02:16:07;;;;;;;0.00;0.00;;;12.90;99.90;;;;;;5017929;28;20664;-60
2022/06/20 02:18:38;;;;;;;0.00;0.00;;;12.80;99.90;;;;;;5017765;28;20523;-59
2022/06/20 02:21:07;;;;;;;0.00;0.00;;;12.80;99.90;;;;;;5018274;28;20083;-59
2022/06/20 02:23:39;;;;;;;0.00;0.00;;;12.80;99.90;;;;;;5017496;28;20053;-59
2022/06/20 02:26:07;;;;;;;0.00;0.00;;;12.70;99.90;;;;;;5015785;28;20049;-59
2022/06/20 02:28:47;;;;;;;0.00;0.00;;;12.70;99.90;;;;;;5018045;28;20499;-59
2022/06/20 02:31:13;;;;;;;0.00;0.00;;;12.70;99.90;;;;;;5016724;28;20112;-59
2022/06/20 02:33:39;;;;;;;0.00;0.00;;;12.60;99.90;;;;;;5017483;28;20116;-59
2022/06/20 02:36:06;;;;;;;0.00;0.00;;;12.60;99.90;;;;;;5018010;28;20046;-58
2022/06/20 02:38:32;;;;;;;0.00;0.00;;;12.60;99.90;;;;;;5017162;28;20451;-59
2022/06/20 02:40:59;;;;;;;0.00;0.00;;;12.60;99.90;;;;;;5018006;28;20061;-59
2022/06/20 02:43:31;;;;;;;0.00;0.00;;;12.50;99.90;;;;;;5017135;28;20535;-59
2022/06/20 02:45:58;;;;;;;0.00;0.00;;;12.40;99.90;;;;;;5029278;28;20048;-59
2022/06/20 02:48:27;;;;;;;0.00;0.00;;;12.40;99.90;;;;;;5017611;28;20053;-59
2022/06/20 02:50:57;;;;;;;0.00;0.00;;;12.30;99.90;;;;;;5015806;28;20053;-60
2022/06/20 02:53:45;;;;;;;0.00;0.00;;;12.30;99.90;;;;;;5017153;28;20112;-60
2022/06/20 02:56:16;;;;;;;0.00;0.00;;;12.30;99.90;;;;;;5021064;28;20055;-59
2022/06/20 02:58:46;;;;;;;0.00;0.00;;;12.10;99.90;;;;;;5022306;28;20099;-58
2022/06/20 03:01:21;;;;;;;0.00;0.00;;;12.10;99.90;;;;;;5020274;28;20042;-59
2022/06/20 03:03:51;;;;;;;0.00;0.00;;;12.10;99.90;;;;;;5020385;28;20679;-59
2022/06/20 03:06:32;;;;;;;0.00;0.00;;;12.00;99.90;;;;;;5021391;28;20069;-59
2022/06/20 03:08:58;;;;;;;0.00;0.00;;;12.00;99.90;;;;;;5018935;28;20092;-58
2022/06/20 03:11:28;;;;;;;0.00;0.00;;;11.90;99.90;;;;;;5021389;28;20578;-59
2022/06/20 03:13:56;;;;;;;0.00;0.00;;;11.90;99.90;;;;;;5021514;28;20052;-60
2022/06/20 03:16:23;;;;;;;0.00;0.00;;;11.90;99.90;;;;;;5020273;28;20434;-60
2022/06/20 03:18:50;;;;;;;0.00;0.00;;;11.90;99.90;;;;;;5020917;28;20071;-60
2022/06/20 03:21:23;;;;;;;0.00;0.00;;;11.70;99.90;;;;;;5021284;28;20501;-59
2022/06/20 03:23:50;;;;;;;0.00;0.00;;;11.80;99.90;;;;;;5021298;28;20041;-59
2022/06/20 03:26:19;;;;;;;0.00;0.00;;;11.70;99.90;;;;;;5020344;28;20680;-59
2022/06/20 03:28:46;;;;;;;0.00;0.00;;;11.70;99.90;;;;;;5021356;28;20037;-59
2022/06/20 03:31:11;;;;;;;0.00;0.00;;;11.70;99.90;;;;;;5021211;28;20060;-59
2022/06/20 03:33:38;;;;;;;0.00;0.00;;;11.60;99.90;;;;;;5020421;28;20229;-59
2022/06/20 03:36:22;;;;;;;0.00;0.00;;;11.60;99.90;;;;;;5020961;28;20045;-59
2022/06/20 03:38:49;;;;;;;0.00;0.00;;;11.50;99.90;;;;;;5019910;28;20499;-60
2022/06/20 03:41:21;;;;;;;0.00;0.00;;;11.60;99.90;;;;;;5019741;28;20124;-58
2022/06/20 03:44:07;;;;;;;0.00;0.00;;;11.60;99.90;;;;;;5021125;28;20049;-59
2022/06/20 03:46:43;;;;;;;0.00;0.00;;;11.70;99.90;;;;;;5029402;28;20037;-60
2022/06/20 03:49:20;;;;;;;0.00;0.00;;;11.70;99.90;;;;;;5040704;28;20040;-59
2022/06/20 03:51:51;;;;;;;0.00;0.00;;;11.80;99.90;;;;;;5039846;28;20044;-59
2022/06/20 03:54:26;;;;;;;0.00;0.00;;;12.20;99.90;;;;;;5040142;28;20779;-59
2022/06/20 03:57:00;;;;;;;;;;;11.80;99.90;;;;;;5041179;28;20041;-58
2022/06/20 03:59:33;;;;;;;0.00;0.00;;;11.80;99.90;;;;;;5039507;28;19921;-60
2022/06/20 04:02:09;;;;;;;0.00;0.00;;;11.70;99.90;;;;;;5040111;28;20106;-60
2022/06/20 04:04:58;;;;;;;0.00;0.00;;;11.80;99.90;;;;;;5040361;28;20053;-59
2022/06/20 04:07:31;;;;;;;0.00;0.00;;;11.90;99.90;;;;;;5038531;28;20442;-60
2022/06/20 04:13:17;;;;;;;0.00;0.00;;;12.00;99.90;;;;;;4997625;28;20053;-60
2022/06/20 04:16:08;;;;;;;0.00;0.00;;;12.30;99.90;;;;;;5033283;28;20059;-59
2022/06/20 04:18:52;;;;;;;0.00;0.00;;;12.50;99.90;;;;;;5029430;28;20140;-59
2022/06/20 04:21:27;;;;;;;0.00;0.00;;;12.40;99.90;;;;;;5039416;28;20112;-60
2022/06/20 04:24:05;;;;;;;;;;;12.40;99.90;;;;;;5040824;28;20053;-60
2022/06/20 04:26:51;;;;;;;0.00;0.00;;;12.30;99.90;;;;;;5039926;28;19921;-60
2022/06/20 04:29:19;;;;;;;0.00;0.00;;;12.60;99.90;;;;;;5039556;28;20041;-60
2022/06/20 04:31:50;;;;;;;0.00;0.00;;;12.30;99.90;;;;;;5040262;28;20400;-60
2022/06/20 04:34:32;;;;;;;0.00;0.00;;;12.30;99.90;;;;;;5039906;28;20102;-61
2022/06/20 04:37:19;;;;;;;0.00;0.00;;;12.40;99.90;;;;;;5038364;28;20415;-60
2022/06/20 04:39:53;;;;;;;0.00;0.00;;;12.40;99.90;;;;;;5039867;28;20083;-60
2022/06/20 04:42:46;;;;;;;0.00;0.00;;;12.50;99.90;;;;;;5038653;28;20041;-60
2022/06/20 04:45:21;;;;;;;0.00;0.00;;;12.50;99.90;;;;;;5033241;28;20053;-61
2022/06/20 04:47:58;;;;;;;0.00;0.00;;;12.50;99.90;;;;;;5023473;28;20099;-61
2022/06/20 04:50:29;;;;;;;0.00;0.00;;;12.60;99.90;;;;;;5019766;28;20406;-61
2022/06/20 04:53:05;;;;;;;0.00;0.00;;;12.80;99.90;;;;;;5019266;28;20084;-60
2022/06/20 04:55:32;;;;;;;0.00;0.00;;;13.00;99.90;;;;;;5019542;28;20384;-60
2022/06/20 04:58:01;;;;;;;0.00;0.00;;;13.60;99.90;;;;;;5019365;28;20084;-60
2022/06/20 05:00:38;;;;;;;0.00;0.00;;;14.10;99.90;;;;;;5019489;28;20057;-61
2022/06/20 05:03:07;;;;;;;0.00;0.00;;;14.50;99.90;;;;;;5019262;28;20128;-61
2022/06/20 05:05:37;;;;;;;0.00;0.00;;;14.90;99.90;;;;;;5019442;28;20502;-60
2022/06/20 05:08:07;;;;;;;0.15;0.00;;;15.30;99.90;;;;;;5016728;28;20096;-60
2022/06/20 05:10:42;;;;;;;0.00;0.00;;;15.50;99.90;;;;;;5019156;28;20048;-60
2022/06/20 05:13:10;;;;;;;;;;;15.60;99.90;;;;;;5017886;28;20153;-59
2022/06/20 05:15:41;;;;;;;0.00;0.00;;;15.60;99.90;;;;;;5018511;28;20357;-60
2022/06/20 05:18:20;;;;;;;0.00;0.00;;;15.60;99.90;;;;;;5018752;28;20045;-59
2022/06/20 05:20:47;;;;;;;0.00;0.00;;;15.70;99.90;;;;;;5019132;28;20049;-60
2022/06/20 05:23:42;;;;;;;0.00;0.00;;;15.80;99.90;;;;;;5017710;28;20079;-60
2022/06/20 05:26:13;;;;;;;0.00;0.00;;;15.80;99.90;;;;;;5018985;28;20778;-60
2022/06/20 05:28:40;;;;;;;0.00;0.00;;;16.00;99.90;;;;;;5018536;28;20048;-60
2022/06/20 05:31:07;;;;;;;0.00;0.00;;;15.90;99.90;;;;;;5018730;28;20049;-60
2022/06/20 05:33:55;;;;;;;0.00;0.00;;;16.00;99.90;;;;;;5018619;28;20091;-60
2022/06/20 05:36:27;;;;;;;0.00;0.00;;;16.30;99.90;;;;;;5016618;28;20120;-59
2022/06/20 05:39:05;;;;;;;0.00;0.00;;;16.50;99.90;;;;;;5018916;28;20053;-60
2022/06/20 05:41:30;;;;;;;0.00;0.00;;;16.70;99.90;;;;;;5018185;28;20045;-59
2022/06/20 05:43:56;;;;;;;0.00;0.00;;;16.90;99.90;;;;;;5018783;28;20536;-58
2022/06/20 05:46:24;;;;;;;0.00;0.00;;;17.10;99.90;;;;;;5029396;28;20460;-58
2022/06/20 05:48:56;;;;;;;0.00;0.00;;;17.30;99.90;;;;;;5018091;28;20121;-58
2022/06/20 05:51:25;;;;;;;0.00;0.00;;;17.60;99.90;;;;;;5018003;28;20084;-58
2022/06/20 05:53:56;;;;;;;0.00;0.00;;;17.30;99.90;;;;;;5018256;28;20049;-58
2022/06/20 05:56:43;;;;;;;0.00;0.00;;;17.50;99.90;;;;;;5017669;28;20059;-59
2022/06/20 05:59:27;;;;;;;0.00;0.00;;;17.40;99.90;;;;;;5018341;28;20049;-58
2022/06/20 06:01:58;;;;;;;0.00;0.00;;;17.40;99.90;;;;;;5017682;28;20056;-58
2022/06/20 06:04:38;;;;;;;0.00;0.00;;;17.50;99.90;;;;;;5018249;28;20125;-59
2022/06/20 06:07:13;;;;;;;0.00;0.00;;;17.50;99.90;;;;;;5016695;28;20076;-58
2022/06/20 06:09:46;;;;;;;;;;;17.20;99.90;;;;;;5018659;28;20585;-58
2022/06/20 06:12:23;;;;;;;0.00;0.00;;;17.10;99.90;;;;;;5018293;28;19975;-58
2022/06/20 06:15:01;;;;;;;0.00;0.00;;;17.40;99.90;;;;;;5018255;28;20055;-59
2022/06/20 06:17:38;;;;;;;0.00;0.00;;;17.80;99.90;;;;;;5017633;28;20105;-58
2022/06/20 06:20:20;;;;;;;0.20;0.03;;;18.00;99.90;;;;;;5017058;28;20038;-59
2022/06/20 06:22:49;;;;;;;0.00;0.00;;;18.10;99.90;;;;;;4999923;28;20091;-58
2022/06/20 06:25:32;;;;;;;0.00;0.00;;;18.10;99.90;;;;;;5017129;28;20051;-59
2022/06/20 06:28:11;;;;;;;0.00;0.00;;;17.90;99.90;;;;;;5018014;28;20046;-60
2022/06/20 06:30:45;;;;;;;0.00;0.00;;;17.60;99.90;;;;;;5021404;28;20085;-60
2022/06/20 06:33:35;;;;;;;0.00;0.00;;;17.10;99.90;;;;;;5022056;28;20045;-60
2022/06/20 06:36:13;;;;;;;0.00;0.00;;;16.60;99.90;;;;;;5020113;28;20045;-59
2022/06/20 06:38:48;;;;;;;0.00;0.00;;;16.10;99.90;;;;;;5021898;28;20136;-59
2022/06/20 06:41:20;;;;;;;0.00;0.00;;;15.90;99.90;;;;;;5022036;28;20180;-59
2022/06/20 06:43:48;;;;;;;0.00;0.00;;;15.80;99.90;;;;;;5037499;28;20102;-59
2022/06/20 06:46:35;;;;;;;0.00;0.00;;;16.00;99.90;;;;;;5033639;28;20069;-59
2022/06/20 06:49:23;;;;;;;0.00;0.00;;;15.90;99.90;;;;;;5021183;28;20094;-59
2022/06/20 06:52:21;;;;;;;0.00;0.00;;;16.00;99.90;;;;;;5021021;28;20056;-59
2022/06/20 06:55:17;;;;;;;0.00;0.00;;;16.10;99.90;;;;;;5022139;28;20053;-59
2022/06/20 06:57:59;;;;;;;0.00;0.00;;;17.00;99.90;;;;;;5022219;28;20053;-59
2022/06/20 07:00:39;;;;;;;0.00;0.00;;;17.60;99.90;;;;;;5021542;28;20045;-59
2022/06/20 07:03:17;;;;;;;0.00;0.00;;;18.10;99.90;;;;;;5021015;28;20492;-60
2022/06/20 07:05:52;;;;;;;0.00;0.00;;;18.40;99.90;;;;;;5022009;28;20137;-59
2022/06/20 07:08:28;;;;;;;0.00;0.00;;;18.50;99.90;;;;;;5020264;28;20060;-60
2022/06/20 07:11:13;;;;;;;0.00;0.00;;;18.90;99.90;;;;;;5021122;28;20124;-59
2022/06/20 07:14:00;;;;;;;0.00;0.00;;;19.10;99.90;;;;;;5020538;28;20408;-60
2022/06/20 07:16:38;;;;;;;0.00;0.00;;;19.10;99.90;;;;;;5019719;28;20060;-59
2022/06/20 07:19:08;;;;;;;0.00;0.00;;;19.00;99.90;;;;;;5020245;28;20037;-59
2022/06/20 07:21:34;;;;;;;0.00;0.00;;;18.90;99.90;;;;;;5019680;28;20435;-60
2022/06/20 07:24:04;;;;;;;0.00;0.00;;;19.40;99.90;;;;;;5020795;28;20602;-59
2022/06/20 07:26:37;;;;;;;0.00;0.00;;;19.20;99.90;;;;;;5019948;28;20048;-60
2022/06/20 07:29:18;;;;;;;0.00;0.00;;;19.20;99.90;;;;;;5020821;28;20041;-60
2022/06/20 07:31:53;;;;;;;0.00;0.00;;;18.20;99.90;;;;;;5021786;28;20091;-59
2022/06/20 07:34:25;;;;;;;0.00;0.00;;;17.90;99.90;;;;;;5020879;28;20052;-59
2022/06/20 07:36:56;;;;;;;0.08;0.08;;;17.60;99.90;;;;;;5018930;28;20038;-59
2022/06/20 07:39:40;;;;;;;0.00;0.00;;;17.40;99.90;;;;;;5019854;28;20053;-62
2022/06/20 07:42:22;;;;;;;0.00;0.00;;;17.20;99.90;;;;;;5019726;28;20665;-59
2022/06/20 07:45:16;;;;;;;0.00;0.00;;;17.50;99.90;;;;;;5022886;28;20043;-60
2022/06/20 07:47:54;;;;;;;0.28;0.10;;;17.60;99.90;;;;;;5035973;28;20079;-59
2022/06/20 07:50:46;;;;;;;0.00;0.00;;;18.20;99.90;;;;;;5040626;28;20095;-60
2022/06/20 07:53:17;;;;;;;0.00;0.00;;;18.80;99.90;;;;;;5037955;28;20095;-59
2022/06/20 07:55:59;;;;;;;0.00;0.00;;;19.20;99.90;;;;;;5041013;28;20048;-59
2022/06/20 07:58:34;;;;;;;0.00;0.00;;;19.00;99.90;;;;;;5040483;28;20053;-59
2022/06/20 08:01:04;;;;;;;0.00;0.00;;;18.40;99.90;;;;;;5037740;28;20053;-59
2022/06/20 08:03:53;;;;;;;0.00;0.00;;;17.90;99.90;;;;;;5040250;28;20577;-60
2022/06/20 08:06:32;;;;;;;0.43;0.17;;;17.50;99.90;;;;;;5038796;28;20053;-59
2022/06/20 08:09:06;;;;;;;0.55;0.20;;;16.90;99.90;;;;;;5040215;28;20125;-60
2022/06/20 08:11:49;;;;;;;0.00;0.00;;;16.70;99.90;;;;;;5039051;28;20487;-60
2022/06/20 08:14:35;;;;;;;0.15;0.15;;;16.70;99.90;;;;;;5040658;28;20041;-60
2022/06/20 08:17:05;;;;;;;0.00;0.00;;;16.70;99.90;;;;;;5039182;28;20400;-59
2022/06/20 08:19:31;;;;;;;0.00;0.00;;;17.10;99.90;;;;;;5040318;28;20186;-59
2022/06/20 08:22:04;;;;;;;0.00;0.00;;;17.80;99.90;;;;;;5037334;28;20049;-60
2022/06/20 08:25:07;;;;;;;0.00;0.00;;;18.10;99.90;;;;;;5032111;28;20044;-59
2022/06/20 08:27:38;;;;;;;0.00;0.00;;;18.30;99.90;;;;;;5030697;28;20058;-60
2022/06/20 08:30:11;;;;;;;0.05;0.03;;;18.70;99.90;;;;;;5029342;28;20095;-60
2022/06/20 08:33:13;;;;;;;0.00;0.00;;;19.00;99.90;;;;;;5028985;28;20053;-59
2022/06/20 08:35:53;;;;;;;0.00;0.00;;;18.90;99.90;;;;;;4996382;28;20059;-59
2022/06/20 08:38:54;;;;;;;0.00;0.00;;;19.00;99.90;;;;;;5026835;28;20046;-60
2022/06/20 08:41:31;;;;;;;0.00;0.00;;;19.20;99.90;;;;;;5044236;28;20049;-60
2022/06/20 08:44:32;;;;;;;0.00;0.00;;;18.70;99.90;;;;;;5021653;28;20045;-60
2022/06/20 08:47:16;;;;;;;0.00;0.00;;;18.50;99.90;;;;;;5027334;28;20411;-59
2022/06/20 08:50:09;;;;;;;0.00;0.00;;;18.70;99.90;;;;;;5019886;28;20060;-59
2022/06/20 08:52:53;;;;;;;0.00;0.00;;;19.10;99.90;;;;;;5018388;28;20527;-59
2022/06/20 08:55:39;;;;;;;0.00;0.00;;;19.30;99.90;;;;;;5019387;28;20045;-59
2022/06/20 08:58:22;;;;;;;0.00;0.00;;;19.40;99.90;;;;;;5019220;28;20096;-60
2022/06/20 09:00:56;;;;;;;0.00;0.00;;;19.60;99.90;;;;;;5019466;28;20049;-59
2022/06/20 09:04:06;;;;;;;0.03;0.03;;;19.70;99.90;;;;;;5018867;28;20054;-60
2022/06/20 09:06:34;;;;;;;0.00;0.00;;;20.00;99.90;;;;;;5012209;28;20300;-59
2022/06/20 09:09:30;;;;;;;0.00;0.00;;;20.00;99.90;;;;;;5019261;28;20204;-60
2022/06/20 09:12:29;;;;;;;0.00;0.00;;;19.90;99.90;;;;;;5018924;28;20496;-60
2022/06/20 09:15:17;;;;;;;0.00;0.00;;;19.50;99.90;;;;;;5018006;28;20055;-59
2022/06/20 09:18:08;;;;;;;0.00;0.00;;;19.30;99.90;;;;;;5019243;28;20037;-60
2022/06/20 09:20:49;;;;;;;0.00;0.00;;;19.00;99.90;;;;;;5018228;28;20076;-61
2022/06/20 09:23:38;;;;;;;0.00;0.00;;;18.90;99.90;;;;;;5019025;28;20120;-60
2022/06/20 09:26:10;;;;;;;0.00;0.00;;;19.10;99.90;;;;;;5017084;28;20045;-59
2022/06/20 09:28:54;;;;;;;0.00;0.00;;;19.30;99.90;;;;;;5018677;28;21094;-61
2022/06/20 09:31:45;;;;;;;0.00;0.00;;;19.60;99.90;;;;;;5018300;28;20048;-60
2022/06/20 09:34:14;;;;;;;0.00;0.00;;;19.50;99.90;;;;;;5018056;28;20052;-59
2022/06/20 09:36:54;;;;;;;0.00;0.00;;;19.30;99.90;;;;;;5017942;28;20045;-60
2022/06/20 09:39:54;;;;;;;0.00;0.00;;;19.10;99.90;;;;;;5018327;28;20084;-60
2022/06/20 09:42:36;;;;;;;0.00;0.00;;;19.10;99.90;;;;;;5017088;28;20053;-60
2022/06/20 09:45:21;;;;;;;0.00;0.00;;;18.90;99.90;;;;;;5021607;28;20052;-60
2022/06/20 09:47:52;;;;;;;;;;;18.80;99.90;;;;;;5023336;28;20046;-60
2022/06/20 09:50:40;;;;;;;0.00;0.00;;;18.70;99.90;;;;;;5016991;28;20705;-59
2022/06/20 09:53:23;;;;;;;0.00;0.00;;;18.80;99.90;;;;;;5017178;28;20053;-59
2022/06/20 09:56:07;;;;;;;0.00;0.00;;;18.80;99.90;;;;;;5017715;28;20056;-60
2022/06/20 09:58:56;;;;;;;0.00;0.00;;;18.20;99.90;;;;;;5017872;28;20053;-60
2022/06/20 10:01:55;;;;;;;0.00;0.00;;;17.90;99.90;;;;;;5018008;28;20038;-59
2022/06/20 10:04:27;;;;;;;0.00;0.00;;;18.10;99.90;;;;;;5014742;28;20140;-59
2022/06/20 10:07:07;;;;;;;0.00;0.00;;;18.40;99.90;;;;;;5013103;28;21111;-59
2022/06/20 10:09:44;;;;;;;0.00;0.00;;;18.80;99.90;;;;;;5030785;28;20037;-59
2022/06/20 10:12:37;;;;;;;0.00;0.00;;;19.60;99.90;;;;;;5036242;28;20667;-58
2022/06/20 10:15:21;;;;;;;0.00;0.00;;;19.90;99.90;;;;;;5016375;28;20045;-58
2022/06/20 10:18:09;;;;;;;0.00;0.00;;;19.50;99.90;;;;;;5017509;28;20041;-59
2022/06/20 10:20:39;;;;;;;0.00;0.00;;;19.20;99.90;;;;;;5030077;28;20669;-58
2022/06/20 10:23:25;;;;;;;0.00;0.00;;;19.70;99.90;;;;;;5036072;28;20049;-58
2022/06/20 10:25:56;;;;;;;0.00;0.00;;;19.70;99.90;;;;;;5025610;28;20037;-58
2022/06/20 10:28:22;;;;;;;0.43;0.10;;;19.80;99.90;;;;;;5032757;28;20049;-59
2022/06/20 10:31:03;;;;;;;0.00;0.00;;;20.10;99.90;;;;;;5015861;28;20049;-58
2022/06/20 10:33:32;;;;;;;0.05;0.03;;;20.60;99.90;;;;;;5016402;28;20045;-59
2022/06/20 10:36:13;;;;;;;0.00;0.00;;;20.60;99.90;;;;;;5015103;28;20136;-58
2022/06/20 10:38:38;;;;;;;0.00;0.00;;;20.20;99.90;;;;;;5019107;28;20503;-58
2022/06/20 10:41:25;;;;;;;0.13;0.00;;;19.80;99.90;;;;;;5035933;28;20094;-58
2022/06/20 10:44:09;;;;;;;0.28;0.17;;;19.80;99.90;;;;;;5036635;28;20041;-56
2022/06/20 10:46:59;;;;;;;0.00;0.00;;;20.00;99.90;;;;;;5027039;28;20041;-59
2022/06/20 10:49:48;;;;;;;0.00;0.00;;;20.10;99.90;;;;;;5036966;28;20407;-58
2022/06/20 10:52:36;;;;;;;0.00;0.00;;;20.00;99.90;;;;;;5036589;28;20118;-58
2022/06/20 10:55:07;;;;;;;0.00;0.00;;;19.70;99.90;;;;;;5036639;28;20507;-59
2022/06/20 10:57:54;;;;;;;0.00;0.00;;;20.10;99.90;;;;;;5036847;28;20500;-59
2022/06/20 11:00:24;;;;;;;0.00;0.00;;;20.30;99.90;;;;;;5035958;28;20131;-59
2022/06/20 11:03:11;;;;;;;0.00;0.00;;;20.70;99.90;;;;;;5035394;28;20064;-58
2022/06/20 11:05:52;;;;;;;0.00;0.00;;;20.70;99.90;;;;;;5035582;28;20061;-60
2022/06/20 11:09:04;;;;;;;0.00;0.00;;;20.70;99.90;;;;;;5037331;28;20092;-58
2022/06/20 11:11:52;;;;;;;0.00;0.00;;;20.10;99.90;;;;;;5032729;28;20052;-60
2022/06/20 11:14:21;;;;;;;0.00;0.00;;;19.90;99.90;;;;;;5036329;28;20048;-59
2022/06/20 11:16:50;;;;;;;0.00;0.00;;;19.90;99.90;;;;;;5040788;28;20088;-59
2022/06/20 11:19:30;;;;;;;0.00;0.00;;;20.00;99.90;;;;;;5040907;28;20055;-59
2022/06/20 11:22:23;;;;;;;0.00;0.00;;;20.30;99.90;;;;;;5039535;28;20045;-59
2022/06/20 11:25:18;;;;;;;0.00;0.00;;;20.70;99.90;;;;;;5041014;28;20096;-59
2022/06/20 11:28:08;;;;;;;0.00;0.00;;;20.70;99.90;;;;;;5041313;28;20055;-59
2022/06/20 11:31:03;;;;;;;0.00;0.00;;;21.00;99.90;;;;;;5040760;28;20124;-59
2022/06/20 11:34:02;;;;;;;0.00;0.00;;;21.10;99.90;;;;;;5035784;28;20044;-59
2022/06/20 11:36:51;;;;;;;0.03;0.03;;;20.70;99.90;;;;;;5036171;28;20761;-59
2022/06/20 11:39:20;;;;;;;0.10;0.05;;;20.70;99.90;;;;;;5037411;28;20041;-59
2022/06/20 11:41:50;;;;;;;0.00;0.00;;;21.00;99.90;;;;;;5020334;28;20088;-59
2022/06/20 11:44:31;;;;;;;0.00;0.00;;;20.60;99.90;;;;;;5015744;28;20053;-59
2022/06/20 11:47:09;;;;;;;0.00;0.00;;;20.30;99.90;;;;;;5022949;28;20045;-59
2022/06/20 11:50:23;;;;;;;0.00;0.00;;;20.00;99.90;;;;;;5020047;28;20057;-60
2022/06/20 11:52:53;;;;;;;0.13;0.13;;;20.20;99.90;;;;;;5017461;28;20052;-59
2022/06/20 11:55:22;;;;;;;0.00;0.00;;;20.30;99.90;;;;;;5030967;28;20045;-59
2022/06/20 11:58:00;;;;;;;0.00;0.00;;;20.40;99.90;;;;;;5034198;28;20053;-59
2022/06/20 12:00:51;;;;;;;0.32;0.10;;;20.30;99.90;;;;;;5037064;28;20045;-59
2022/06/20 12:03:47;;;;;;;0.10;0.00;;;20.40;99.90;;;;;;5025787;28;20060;-58
2022/06/20 12:06:31;;;;;;;0.00;0.00;;;20.70;99.90;;;;;;5018525;28;20068;-58
2022/06/20 12:09:11;;;;;;;0.00;0.00;;;20.20;99.90;;;;;;5016606;28;20060;-58
2022/06/20 12:11:53;;;;;;;0.10;0.00;;;19.90;99.90;;;;;;5018808;28;20554;-58
2022/06/20 12:14:28;;;;;;;0.00;0.00;;;20.00;99.90;;;;;;5019489;28;20385;-57
2022/06/20 12:16:53;;;;;;;;;;;20.30;99.90;;;;;;5019532;28;20128;-58
2022/06/20 12:25:43;;;;;;;0.00;0.00;;;20.40;99.90;;;;;;5018053;28;20049;-59
2022/06/20 12:28:18;;;;;;;0.00;0.00;;;19.90;99.90;;;;;;5017375;28;20041;-59
2022/06/20 12:30:46;;;;;;;0.00;0.00;;;20.00;99.90;;;;;;5018140;28;20075;-58
2022/06/20 12:33:13;;;;;;;0.00;0.00;;;20.40;99.90;;;;;;5019176;28;20454;-58
2022/06/20 12:35:52;;;;;;;0.00;0.00;;;20.80;99.90;;;;;;5018017;28;20048;-59
2022/06/20 12:38:21;;;;;;;0.00;0.00;;;20.60;99.90;;;;;;5016452;28;20767;-59
2022/06/20 12:40:49;;;;;;;0.40;0.13;;;20.60;99.90;;;;;;5033821;28;20068;-58
2022/06/20 12:43:21;;;;;;;0.00;0.00;;;20.70;99.90;;;;;;5036165;28;20045;-59
2022/06/20 12:46:04;;;;;;;0.00;0.00;;;21.20;99.90;;;;;;5031333;28;20460;-59
2022/06/20 12:48:57;;;;;;;0.00;0.00;;;21.30;99.90;;;;;;5018585;28;20052;-58
2022/06/20 12:51:41;;;;;;;0.70;0.32;;;21.20;99.90;;;;;;5017879;28;20509;-58
2022/06/20 12:54:12;;;;;;;0.15;0.10;;;21.00;99.90;;;;;;5018243;28;20191;-59
2022/06/20 12:57:05;;;;;;;0.00;0.00;;;21.20;99.90;;;;;;5033018;28;20045;-59
2022/06/20 12:59:39;;;;;;;0.17;0.10;;;21.40;99.90;;;;;;5017592;28;20041;-60
2022/06/20 13:02:10;;;;;;;;;;;20.80;99.90;;;;;;5029884;28;20057;-58
2022/06/20 13:04:57;;;;;;;0.00;0.00;;;20.60;99.90;;;;;;5024885;28;20019;-58
2022/06/20 13:07:58;;;;;;;0.00;0.00;;;20.30;99.90;;;;;;5023526;28;20771;-59
2022/06/20 13:10:38;;;;;;;0.00;0.00;;;20.00;99.90;;;;;;5024534;28;20034;-58
2022/06/20 13:13:25;;;;;;;0.00;0.00;;;19.90;99.90;;;;;;5024938;28;20053;-59
2022/06/20 13:16:09;;;;;;;0.00;0.00;;;19.70;99.90;;;;;;5022470;28;20049;-58
2022/06/20 13:18:53;;;;;;;0.00;0.00;;;19.40;99.90;;;;;;5025156;28;20580;-59
2022/06/20 13:21:48;;;;;;;0.00;0.00;;;19.40;99.90;;;;;;5022710;28;20076;-59
2022/06/20 13:24:39;;;;;;;0.00;0.00;;;19.80;99.90;;;;;;5024524;28;20045;-59
2022/06/20 13:27:25;;;;;;;0.00;0.00;;;19.90;99.90;;;;;;5024019;28;20331;-58
2022/06/20 13:30:21;;;;;;;0.00;0.00;;;19.30;99.90;;;;;;5023116;28;20049;-55
2022/06/20 13:33:24;;;;;;;0.00;0.00;;;19.10;99.90;;;;;;5025316;28;20121;-59
2022/06/20 13:36:11;;;;;;;0.20;0.13;;;19.30;99.90;;;;;;5002723;28;20053;-59
2022/06/20 13:38:47;;;;;;;0.00;0.00;;;19.30;99.90;;;;;;5022258;28;20049;-59
2022/06/20 13:41:22;;;;;;;0.00;0.00;;;19.30;99.90;;;;;;5024163;28;20049;-59
2022/06/20 13:44:26;;;;;;;0.00;0.00;;;19.20;99.90;;;;;;5024471;28;20046;-59
2022/06/20 13:47:18;;;;;;;0.00;0.00;;;19.10;99.90;;;;;;5022813;28;20112;-58
2022/06/20 13:49:57;;;;;;;0.00;0.00;;;19.10;99.90;;;;;;5024173;28;20053;-59
2022/06/20 13:52:57;;;;;;;0.00;0.00;;;19.20;99.90;;;;;;5024155;28;20493;-59
2022/06/20 13:55:37;;;;;;;0.00;0.00;;;19.00;99.90;;;;;;5024488;28;20076;-58
2022/06/20 13:58:25;;;;;;;0.00;0.00;;;18.90;99.90;;;;;;5023366;28;20037;-58